Time,TemperatureF,DewpointF,PressureIn,WindDirection,WindDirectionDegrees,WindSpeedMPH,WindSpeedGustMPH,Humidity,HourlyPrecipIn,Conditions,Clouds,dailyrainin,SoftwareType,DateUTC
2013-08-21 00:09:00,59.2,57.0,29.88,WSW,243,4.0,4.0,93,0.00,,,0.00,weatherlink.com 1.10,2013-08-21 07:09:00,
2013-08-21 00:24:00,59.2,57.0,29.89,South,176,3.0,5.0,93,0.00,,,0.00,weatherlink.com 1.10,2013-08-21 07:24:00,
2013-08-21 00:39:00,59.2,57.0,29.89,SW,217,0.0,4.0,93,0.00,,,0.00,weatherlink.com 1.10,2013-08-21 07:39:00,
2013-08-21 00:55:00,59.4,57.0,29.89,West,280,0.0,2.0,92,0.00,,,0.00,weatherlink.com 1.10,2013-08-21 07:55:00,
2013-08-21 01:10:00,59.3,57.0,29.89,WNW,293,3.0,3.0,92,0.00,,,0.00,weatherlink.com 1.10,2013-08-21 08:10:00,
2013-08-21 01:25:00,59.3,57.0,29.89,West,262,0.0,0.0,92,0.00,,,0.00,weatherlink.com 1.10,2013-08-21 08:25:00,
2013-08-21 01:40:00,59.2,57.0,29.89,WNW,291,0.0,5.0,92,0.00,,,0.00,weatherlink.com 1.10,2013-08-21 08:40:00,
2013-08-21 01:55:00,59.3,57.0,29.89,SSE,158,1.0,3.0,92,0.00,,,0.00,weatherlink.com 1.10,2013-08-21 08:55:00,
2013-08-21 02:10:00,59.0,57.0,29.88,WNW,287,0.0,2.0,92,0.00,,,0.00,weatherlink.com 1.10,2013-08-21 09:10:00,
2013-08-21 02:25:00,59.0,57.0,29.88,WSW,238,0.0,3.0,92,0.00,,,0.00,weatherlink.com 1.10,2013-08-21 09:25:00,
2013-08-21 02:40:00,59.0,57.0,29.88,SSW,213,2.0,4.0,92,0.00,,,0.00,weatherlink.com 1.10,2013-08-21 09:40:00,
2013-08-21 02:55:00,58.8,57.0,29.88,West,265,2.0,5.0,92,0.00,,,0.00,weatherlink.com 1.10,2013-08-21 09:55:00,
2013-08-21 03:10:00,58.8,57.0,29.88,WNW,297,3.0,3.0,92,0.00,,,0.00,weatherlink.com 1.10,2013-08-21 10:10:00,
2013-08-21 03:25:00,58.7,56.0,29.88,West,279,3.0,6.0,91,0.00,,,0.00,weatherlink.com 1.10,2013-08-21 10:25:00,
2013-08-21 03:40:00,58.6,56.0,29.88,WSW,246,1.0,4.0,91,0.00,,,0.00,weatherlink.com 1.10,2013-08-21 10:40:00,
2013-08-21 03:55:00,58.6,56.0,29.89,SW,215,3.0,5.0,91,0.00,,,0.00,weatherlink.com 1.10,2013-08-21 10:55:00,
2013-08-21 04:10:00,58.4,56.0,29.88,SSW,202,0.0,5.0,92,0.00,,,0.00,weatherlink.com 1.10,2013-08-21 11:10:00,
2013-08-21 04:25:00,58.2,56.0,29.88,West,271,2.0,7.0,92,0.00,,,0.00,weatherlink.com 1.10,2013-08-21 11:25:00,
2013-08-21 04:40:00,58.0,56.0,29.88,SW,236,2.0,6.0,92,0.00,,,0.00,weatherlink.com 1.10,2013-08-21 11:40:00,
2013-08-21 04:55:00,57.9,56.0,29.89,WSW,245,1.0,6.0,92,0.00,,,0.00,weatherlink.com 1.10,2013-08-21 11:55:00,
2013-08-21 05:10:00,57.8,56.0,29.88,SSE,167,2.0,5.0,92,0.00,,,0.00,weatherlink.com 1.10,2013-08-21 12:10:00,
2013-08-21 05:25:00,57.8,56.0,29.89,SW,226,1.0,6.0,92,0.00,,,0.00,weatherlink.com 1.10,2013-08-21 12:25:00,
2013-08-21 05:40:00,57.7,56.0,29.89,WSW,254,0.0,4.0,93,0.00,,,0.00,weatherlink.com 1.10,2013-08-21 12:40:00,
2013-08-21 05:55:00,57.7,56.0,29.89,SW,225,0.0,5.0,93,0.00,,,0.00,weatherlink.com 1.10,2013-08-21 12:55:00,
2013-08-21 06:10:00,57.6,56.0,29.89,SW,219,0.0,5.0,94,0.00,,,0.00,weatherlink.com 1.10,2013-08-21 13:10:00,
2013-08-21 06:25:00,57.6,56.0,29.89,SW,222,0.0,5.0,94,0.00,,,0.00,weatherlink.com 1.10,2013-08-21 13:25:00,
2013-08-21 06:40:00,57.7,56.0,29.90,SW,235,2.0,6.0,94,0.00,,,0.00,weatherlink.com 1.10,2013-08-21 13:40:00,
2013-08-21 06:55:00,57.7,56.0,29.91,West,277,0.0,7.0,94,0.00,,,0.00,weatherlink.com 1.10,2013-08-21 13:55:00,
2013-08-21 07:10:00,57.7,56.0,29.91,SW,236,3.0,5.0,93,0.00,,,0.00,weatherlink.com 1.10,2013-08-21 14:10:00,
2013-08-21 07:25:00,57.7,56.0,29.91,West,280,0.0,4.0,93,0.00,,,0.00,weatherlink.com 1.10,2013-08-21 14:25:00,
2013-08-21 07:40:00,57.7,56.0,29.91,West,280,0.0,4.0,93,0.00,,,0.00,weatherlink.com 1.10,2013-08-21 14:40:00,
2013-08-21 07:55:00,57.9,56.0,29.92,WSW,243,0.0,2.0,93,0.00,,,0.00,weatherlink.com 1.10,2013-08-21 14:55:00,
2013-08-21 08:10:00,57.9,56.0,29.93,WNW,288,0.0,4.0,93,0.00,,,0.00,weatherlink.com 1.10,2013-08-21 15:10:00,
2013-08-21 08:25:00,58.0,56.0,29.93,WSW,256,0.0,6.0,92,0.00,,,0.00,weatherlink.com 1.10,2013-08-21 15:25:00,
2013-08-21 08:40:00,58.1,56.0,29.93,West,264,1.0,3.0,92,0.00,,,0.00,weatherlink.com 1.10,2013-08-21 15:40:00,
2013-08-21 08:55:00,58.6,56.0,29.93,West,269,0.0,2.0,92,0.00,,,0.00,weatherlink.com 1.10,2013-08-21 15:55:00,
2013-08-21 09:10:00,58.4,56.0,29.93,West,281,0.0,3.0,92,0.00,,,0.00,weatherlink.com 1.10,2013-08-21 16:10:00,
2013-08-21 09:25:00,58.8,56.0,29.93,SW,214,0.0,2.0,91,0.00,,,0.00,weatherlink.com 1.10,2013-08-21 16:25:00,
2013-08-21 09:40:00,59.3,56.0,29.93,SSW,208,0.0,4.0,90,0.00,,,0.00,weatherlink.com 1.10,2013-08-21 16:40:00,
2013-08-21 09:55:00,59.6,56.0,29.93,WNW,288,0.0,4.0,89,0.00,,,0.00,weatherlink.com 1.10,2013-08-21 16:55:00,
2013-08-21 10:10:00,59.7,57.0,29.94,WNW,285,2.0,4.0,89,0.00,,,0.00,weatherlink.com 1.10,2013-08-21 17:10:00,
2013-08-21 10:25:00,60.7,57.0,29.94,SSE,167,2.0,3.0,87,0.00,,,0.00,weatherlink.com 1.10,2013-08-21 17:25:00,
2013-08-21 10:40:00,61.1,57.0,29.94,West,272,0.0,4.0,87,0.00,,,0.00,weatherlink.com 1.10,2013-08-21 17:40:00,
2013-08-21 10:55:00,61.3,57.0,29.94,South,176,2.0,4.0,86,0.00,,,0.00,weatherlink.com 1.10,2013-08-21 17:55:00,
2013-08-21 11:10:00,62.4,58.0,29.94,West,266,0.0,5.0,85,0.00,,,0.00,weatherlink.com 1.10,2013-08-21 18:10:00,
2013-08-21 11:26:00,63.2,58.0,29.94,WSW,252,0.0,4.0,83,0.00,,,0.00,weatherlink.com 1.10,2013-08-21 18:26:00,
2013-08-21 11:41:00,65.0,58.0,29.93,SW,214,3.0,6.0,79,0.00,,,0.00,weatherlink.com 1.10,2013-08-21 18:41:00,
2013-08-21 11:56:00,66.0,59.0,29.93,WNW,291,2.0,5.0,78,0.00,,,0.00,weatherlink.com 1.10,2013-08-21 18:56:00,
2013-08-21 12:11:00,67.7,59.0,29.93,WSW,255,3.0,4.0,74,0.00,,,0.00,weatherlink.com 1.10,2013-08-21 19:11:00,
2013-08-21 12:26:00,68.7,59.0,29.93,SSW,205,3.0,7.0,71,0.00,,,0.00,weatherlink.com 1.10,2013-08-21 19:26:00,
2013-08-21 12:41:00,70.0,59.0,29.93,ENE,70,1.0,7.0,68,0.00,,,0.00,weatherlink.com 1.10,2013-08-21 19:41:00,
2013-08-21 12:56:00,71.0,59.0,29.92,SW,217,3.0,7.0,66,0.00,,,0.00,weatherlink.com 1.10,2013-08-21 19:56:00,
2013-08-21 13:11:00,71.5,59.0,29.91,WNW,303,2.0,6.0,65,0.00,,,0.00,weatherlink.com 1.10,2013-08-21 20:11:00,
2013-08-21 13:26:00,73.5,60.0,29.91,West,259,3.0,5.0,62,0.00,,,0.00,weatherlink.com 1.10,2013-08-21 20:26:00,
2013-08-21 13:41:00,74.5,60.0,29.90,ESE,110,1.0,10.0,61,0.00,,,0.00,weatherlink.com 1.10,2013-08-21 20:41:00,
2013-08-21 13:56:00,75.2,60.0,29.90,WNW,290,4.0,9.0,59,0.00,,,0.00,weatherlink.com 1.10,2013-08-21 20:56:00,
2013-08-21 14:11:00,75.7,60.0,29.89,SW,215,1.0,11.0,58,0.00,,,0.00,weatherlink.com 1.10,2013-08-21 21:11:00,
2013-08-21 14:26:00,75.5,59.0,29.89,SW,214,7.0,10.0,57,0.00,,,0.00,weatherlink.com 1.10,2013-08-21 21:26:00,
2013-08-21 14:41:00,75.1,59.0,29.88,West,274,4.0,7.0,57,0.00,,,0.00,weatherlink.com 1.10,2013-08-21 21:41:00,
2013-08-21 14:56:00,74.8,58.0,29.88,South,187,4.0,9.0,57,0.00,,,0.00,weatherlink.com 1.10,2013-08-21 21:56:00,
2013-08-21 15:11:00,75.0,58.0,29.88,SSE,163,7.0,9.0,56,0.00,,,0.00,weatherlink.com 1.10,2013-08-21 22:11:00,
2013-08-21 15:26:00,75.2,58.0,29.87,SW,214,2.0,10.0,55,0.00,,,0.00,weatherlink.com 1.10,2013-08-21 22:26:00,
2013-08-21 15:41:00,74.6,58.0,29.87,West,266,4.0,9.0,57,0.00,,,0.00,weatherlink.com 1.10,2013-08-21 22:41:00,
2013-08-21 15:56:00,74.4,58.0,29.86,West,269,9.0,9.0,57,0.00,,,0.00,weatherlink.com 1.10,2013-08-21 22:56:00,
2013-08-21 16:11:00,73.9,58.0,29.86,WSW,258,3.0,10.0,57,0.00,,,0.00,weatherlink.com 1.10,2013-08-21 23:11:00,
2013-08-21 16:26:00,74.0,58.0,29.86,SSW,205,5.0,13.0,58,0.00,,,0.00,weatherlink.com 1.10,2013-08-21 23:26:00,
2013-08-21 16:41:00,72.7,57.0,29.86,ESE,108,6.0,11.0,59,0.00,,,0.00,weatherlink.com 1.10,2013-08-21 23:41:00,
2013-08-21 16:56:00,71.7,57.0,29.86,WNW,293,5.0,13.0,61,0.00,,,0.00,weatherlink.com 1.10,2013-08-21 23:56:00,
2013-08-21 17:11:00,71.2,57.0,29.86,WSW,241,11.0,12.0,61,0.00,,,0.00,weatherlink.com 1.10,2013-08-22 00:11:00,
2013-08-21 17:26:00,70.1,57.0,29.87,SW,214,3.0,13.0,64,0.00,,,0.00,weatherlink.com 1.10,2013-08-22 00:26:00,
2013-08-21 17:41:00,69.8,57.0,29.87,SW,218,6.0,11.0,64,0.00,,,0.00,weatherlink.com 1.10,2013-08-22 00:41:00,
2013-08-21 17:56:00,68.7,56.0,29.87,SSW,200,5.0,13.0,65,0.00,,,0.00,weatherlink.com 1.10,2013-08-22 00:56:00,
2013-08-21 18:11:00,68.1,56.0,29.87,SE,142,6.0,13.0,65,0.00,,,0.00,weatherlink.com 1.10,2013-08-22 01:11:00,
2013-08-21 18:26:00,67.2,56.0,29.88,West,267,4.0,12.0,67,0.00,,,0.00,weatherlink.com 1.10,2013-08-22 01:26:00,
2013-08-21 18:42:00,66.1,56.0,29.88,SSW,203,5.0,12.0,70,0.00,,,0.00,weatherlink.com 1.10,2013-08-22 01:42:00,
2013-08-21 18:57:00,64.8,56.0,29.88,SSW,205,5.0,12.0,72,0.00,,,0.00,weatherlink.com 1.10,2013-08-22 01:57:00,
2013-08-21 19:12:00,63.7,56.0,29.88,South,173,7.0,11.0,75,0.00,,,0.00,weatherlink.com 1.10,2013-08-22 02:12:00,
2013-08-21 19:27:00,62.2,55.0,29.89,South,189,9.0,12.0,78,0.00,,,0.00,weatherlink.com 1.10,2013-08-22 02:27:00,
2013-08-21 19:42:00,60.7,55.0,29.89,South,191,5.0,11.0,81,0.00,,,0.00,weatherlink.com 1.10,2013-08-22 02:42:00,
2013-08-21 19:57:00,59.7,55.0,29.89,SW,216,9.0,11.0,83,0.00,,,0.00,weatherlink.com 1.10,2013-08-22 02:57:00,
2013-08-21 20:12:00,58.8,54.0,29.89,WSW,257,6.0,10.0,85,0.00,,,0.00,weatherlink.com 1.10,2013-08-22 03:12:00,
2013-08-21 20:27:00,58.2,54.0,29.89,SSW,201,4.0,11.0,86,0.00,,,0.00,weatherlink.com 1.10,2013-08-22 03:27:00,
2013-08-21 20:42:00,57.8,54.0,29.90,SW,214,3.0,7.0,87,0.00,,,0.00,weatherlink.com 1.10,2013-08-22 03:42:00,
2013-08-21 20:57:00,57.5,54.0,29.91,SW,229,5.0,7.0,88,0.00,,,0.00,weatherlink.com 1.10,2013-08-22 03:57:00,
2013-08-21 21:12:00,57.2,54.0,29.91,SW,215,4.0,7.0,89,0.00,,,0.00,weatherlink.com 1.10,2013-08-22 04:12:00,
2013-08-21 21:27:00,56.8,54.0,29.91,SSW,208,2.0,6.0,89,0.00,,,0.00,weatherlink.com 1.10,2013-08-22 04:27:00,
2013-08-21 21:42:00,56.6,54.0,29.92,SE,134,2.0,4.0,90,0.00,,,0.00,weatherlink.com 1.10,2013-08-22 04:42:00,
2013-08-21 21:57:00,56.3,54.0,29.92,SW,226,0.0,2.0,90,0.00,,,0.00,weatherlink.com 1.10,2013-08-22 04:57:00,
2013-08-21 22:12:00,55.9,53.0,29.91,SSW,198,0.0,0.0,91,0.00,,,0.00,weatherlink.com 1.10,2013-08-22 05:12:00,
2013-08-21 22:27:00,55.6,53.0,29.91,SSE,162,0.0,0.0,91,0.00,,,0.00,weatherlink.com 1.10,2013-08-22 05:27:00,
2013-08-21 22:42:00,55.5,53.0,29.91,SW,229,0.0,0.0,92,0.00,,,0.00,weatherlink.com 1.10,2013-08-22 05:42:00,
2013-08-21 22:57:00,55.0,53.0,29.91,ESE,122,0.0,0.0,92,0.00,,,0.00,weatherlink.com 1.10,2013-08-22 05:57:00,
2013-08-21 23:12:00,55.0,53.0,29.91,East,98,0.0,0.0,92,0.00,,,0.00,weatherlink.com 1.10,2013-08-22 06:12:00,
2013-08-21 23:27:00,54.3,52.0,29.91,SW,215,0.0,0.0,92,0.00,,,0.00,weatherlink.com 1.10,2013-08-22 06:27:00,
2013-08-21 23:42:00,54.2,52.0,29.91,SE,131,0.0,0.0,93,0.00,,,0.00,weatherlink.com 1.10,2013-08-22 06:42:00,
2013-08-21 23:57:00,54.0,52.0,29.91,SSW,198,0.0,0.0,93,0.00,,,0.00,weatherlink.com 1.10,2013-08-22 06:57:00,